Aplicació Alertes

Dades de l'estació automàtica Malniu (2.230 m)

?
?
Resum diari 23:00 TU
Dades diàries de l'estació meteorològica
Temperatura mitjana 3.7 °C
Temperatura màxima 8.0 °C 13:40 TU
Temperatura mínima 1.0 °C 2:23 TU
Humitat relativa mitjana 29%
Precipitació acumulada 0.2 mm
Gruix de neu màxim 6 cm
Ratxa màxima del vent (6 m) 34.2 km/h - 269º 11:35 TU
Irradiació solar global 10.8 MJ/m2

El tram horari està expressat en Temps Universal (TU). Cal sumar una hora en horari d'hivern i dues en horari d'estiu per passar a l'hora oficial.

Malniu (2.230 m)

Metadades estació meteorol´gica
Municipi Meranges
Comarca Cerdanya
Altitud 2230 m
Data alta 03.11.1999
Estat actual Operativa
Dades de període
Període
TU
TM
°C
TX
°C
TN
°C
HRM
%
PPT
mm
GN
cm
VVM (6 m)
km/h
DVM (6 m)
graus
VVX (6 m)
km/h
RS
W/m2
00:00 - 00:30 1.7 2.0 1.4 20 0.0 5 6.8 347 10.4 0
00:30 - 01:00 1.8 2.3 1.3 20 0.0 5 6.5 1 11.5 0
01:00 - 01:30 2.1 3.0 1.6 20 0.0 5 6.5 328 17.3 0
01:30 - 02:00 2.2 2.6 1.8 19 0.0 6 4.0 26 13.3 0
02:00 - 02:30 1.7 2.1 1.0 21 0.0 5 5.8 339 17.6 0
02:30 - 03:00 2.3 2.6 2.1 22 0.0 5 7.6 330 16.6 0
03:00 - 03:30 1.7 2.5 1.5 25 0.0 6 3.2 324 11.2 0
03:30 - 04:00 2.1 2.5 1.5 23 0.0 5 4.7 307 13.3 0
04:00 - 04:30 1.7 2.0 1.5 25 0.0 5 3.6 330 10.4 0
04:30 - 05:00 1.9 2.4 1.2 25 0.0 5 3.6 288 13.7 0
05:00 - 05:30 2.1 2.4 1.7 26 0.0 5 4.0 357 16.6 0
05:30 - 06:00 2.4 2.6 2.1 26 0.0 5 2.5 16 11.9 0
06:00 - 06:30 2.2 2.5 1.8 27 0.0 5 4.7 357 13.3 0
06:30 - 07:00 2.1 2.4 1.8 27 0.0 5 4.7 344 12.6 3
07:00 - 07:30 2.4 2.7 1.8 27 0.0 6 4.3 305 13.0 35
07:30 - 08:00 3.6 4.3 2.5 25 0.0 5 5.4 263 15.1 125
08:00 - 08:30 4.6 5.4 4.1 22 0.0 5 3.6 145 13.7 189
08:30 - 09:00 5.2 5.6 4.9 22 0.0 5 5.4 229 19.1 278
09:00 - 09:30 5.7 6.3 5.2 22 0.0 5 5.8 216 14.8 372
09:30 - 10:00 5.4 6.7 4.5 21 0.0 6 2.5 174 7.9 359
10:00 - 10:30 5.7 6.3 5.3 21 0.0 5 4.7 172 12.6 473
10:30 - 11:00 6.1 6.6 5.7 22 0.0 5 4.0 175 9.7 504
11:00 - 11:30 6.1 6.5 5.6 22 0.0 5 5.8 208 18.7 522
11:30 - 12:00 6.0 6.7 5.3 24 0.0 6 10.8 253 34.2 527
12:00 - 12:30 6.2 6.7 5.8 23 0.0 5 10.4 234 33.8 516
12:30 - 13:00 6.5 6.8 6.0 24 0.0 5 9.4 233 28.4 482
13:00 - 13:30 7.1 7.7 6.0 23 0.0 5 4.7 194 13.0 451
13:30 - 14:00 7.5 8.0 7.1 21 0.0 5 2.9 149 11.5 397
14:00 - 14:30 6.7 7.1 6.4 22 0.0 5 2.9 188 10.1 330
14:30 - 15:00 6.0 6.5 5.4 24 0.0 5 2.2 123 9.4 254
15:00 - 15:30 5.2 5.6 5.0 26 0.0 5 2.5 104 7.2 172
15:30 - 16:00 5.1 5.6 4.6 28 0.1 5 1.8 81 6.8 84
16:00 - 16:30 4.2 4.6 3.6 34 0.1 5 1.4 260 6.8 5
16:30 - 17:00 3.6 3.8 3.3 40 0.0 5 3.6 296 10.1 0
17:00 - 17:30 3.4 3.8 3.1 44 0.0 5 1.8 302 8.6 0
17:30 - 18:00 3.1 3.2 2.9 34 0.0 5 1.4 29 5.0 0
18:00 - 18:30 3.0 3.7 2.7 38 0.0 5 2.9 278 14.8 0
18:30 - 19:00 3.2 3.7 2.6 40 0.0 5 3.2 11 20.2 0
19:00 - 19:30 3.3 3.8 2.7 42 0.0 5 3.2 249 12.6 0
19:30 - 20:00 2.7 3.0 2.4 36 0.0 5 2.2 288 8.6 0
20:00 - 20:30 2.5 2.7 2.4 36 0.0 5 1.4 0 4.7 0
20:30 - 21:00 2.6 2.9 2.5 38 0.0 4 3.2 356 13.3 0
21:00 - 21:30 2.6 2.9 2.4 42 0.0 5 3.6 248 15.1 0
21:30 - 22:00 2.5 2.8 2.1 47 0.0 5 4.3 298 13.3 0
22:00 - 22:30 3.0 3.4 2.6 50 0.0 5 11.2 257 26.3 0
22:30 - 23:00 2.9 3.2 2.3 49 0.0 5 9.4 256 22.3 0
23:00 - 23:30 2.8 3.1 2.6 50 0.0 5 5.4 259 17.6 0

Les dades en taronja només han passat un control de qualitat automàtic. Resta pendent la seva validació definitiva.